sensor_id;sensor_type;location;lat;lon;timestamp;temperature;humidity
11925;DHT22;6022;48.768;18.608;2023-12-22T00:02:00;4.50;99.90
11925;DHT22;6022;48.768;18.608;2023-12-22T00:04:28;4.40;99.90
11925;DHT22;6022;48.768;18.608;2023-12-22T00:06:55;4.50;99.90
11925;DHT22;6022;48.768;18.608;2023-12-22T00:09:22;4.40;99.90
11925;DHT22;6022;48.768;18.608;2023-12-22T00:11:50;4.20;99.90
11925;DHT22;6022;48.768;18.608;2023-12-22T00:14:17;4.40;99.90
11925;DHT22;6022;48.768;18.608;2023-12-22T00:16:44;4.50;99.90
11925;DHT22;6022;48.768;18.608;2023-12-22T00:19:11;4.50;99.90
11925;DHT22;6022;48.768;18.608;2023-12-22T00:21:39;4.60;99.90
11925;DHT22;6022;48.768;18.608;2023-12-22T00:24:07;4.50;99.90
11925;DHT22;6022;48.768;18.608;2023-12-22T00:26:35;4.50;99.90
11925;DHT22;6022;48.768;18.608;2023-12-22T00:29:02;4.40;99.90
11925;DHT22;6022;48.768;18.608;2023-12-22T00:31:29;4.50;99.90
11925;DHT22;6022;48.768;18.608;2023-12-22T00:33:57;4.60;99.90
11925;DHT22;6022;48.768;18.608;2023-12-22T00:36:24;4.60;99.90
11925;DHT22;6022;48.768;18.608;2023-12-22T00:38:51;4.70;99.90
11925;DHT22;6022;48.768;18.608;2023-12-22T00:41:19;4.80;99.90
11925;DHT22;6022;48.768;18.608;2023-12-22T00:43:49;4.60;99.90
11925;DHT22;6022;48.768;18.608;2023-12-22T00:46:17;4.50;99.90
11925;DHT22;6022;48.768;18.608;2023-12-22T00:48:44;4.30;99.90
11925;DHT22;6022;48.768;18.608;2023-12-22T00:51:12;4.50;99.90
11925;DHT22;6022;48.768;18.608;2023-12-22T00:53:39;4.40;99.90
11925;DHT22;6022;48.768;18.608;2023-12-22T00:56:09;4.50;99.90
11925;DHT22;6022;48.768;18.608;2023-12-22T00:58:40;4.50;99.90
11925;DHT22;6022;48.768;18.608;2023-12-22T01:01:07;4.50;99.90
11925;DHT22;6022;48.768;18.608;2023-12-22T01:03:34;4.50;99.90
11925;DHT22;6022;48.768;18.608;2023-12-22T01:06:02;4.40;99.90
11925;DHT22;6022;48.768;18.608;2023-12-22T01:08:29;4.60;99.90
11925;DHT22;6022;48.768;18.608;2023-12-22T01:10:57;4.70;99.90
11925;DHT22;6022;48.768;18.608;2023-12-22T01:13:24;4.60;99.90
11925;DHT22;6022;48.768;18.608;2023-12-22T01:15:51;4.80;99.90
11925;DHT22;6022;48.768;18.608;2023-12-22T01:18:18;4.80;99.90
11925;DHT22;6022;48.768;18.608;2023-12-22T01:20:46;4.70;99.90
11925;DHT22;6022;48.768;18.608;2023-12-22T01:23:13;4.70;99.90
11925;DHT22;6022;48.768;18.608;2023-12-22T01:25:40;4.70;99.90
11925;DHT22;6022;48.768;18.608;2023-12-22T01:28:07;4.70;99.90
11925;DHT22;6022;48.768;18.608;2023-12-22T01:30:35;5.10;99.90
11925;DHT22;6022;48.768;18.608;2023-12-22T01:33:03;4.80;99.90
11925;DHT22;6022;48.768;18.608;2023-12-22T01:35:30;4.70;99.90
11925;DHT22;6022;48.768;18.608;2023-12-22T01:37:58;4.60;99.90
11925;DHT22;6022;48.768;18.608;2023-12-22T01:40:25;4.60;99.90
11925;DHT22;6022;48.768;18.608;2023-12-22T01:42:53;4.70;99.90
11925;DHT22;6022;48.768;18.608;2023-12-22T01:45:20;4.30;99.90
11925;DHT22;6022;48.768;18.608;2023-12-22T01:47:47;4.20;99.90
11925;DHT22;6022;48.768;18.608;2023-12-22T01:50:15;4.50;99.90
11925;DHT22;6022;48.768;18.608;2023-12-22T01:52:44;4.10;99.90
11925;DHT22;6022;48.768;18.608;2023-12-22T01:55:12;4.20;99.90
11925;DHT22;6022;48.768;18.608;2023-12-22T01:57:41;4.40;99.90
11925;DHT22;6022;48.768;18.608;2023-12-22T02:00:11;4.30;99.90
11925;DHT22;6022;48.768;18.608;2023-12-22T02:02:40;4.60;99.90
11925;DHT22;6022;48.768;18.608;2023-12-22T02:05:11;4.00;99.90
11925;DHT22;6022;48.768;18.608;2023-12-22T02:07:41;4.60;99.90
11925;DHT22;6022;48.768;18.608;2023-12-22T02:10:09;4.50;99.90
11925;DHT22;6022;48.768;18.608;2023-12-22T02:12:37;4.50;99.90
11925;DHT22;6022;48.768;18.608;2023-12-22T02:15:05;4.40;99.90
11925;DHT22;6022;48.768;18.608;2023-12-22T02:17:43;4.40;99.90
11925;DHT22;6022;48.768;18.608;2023-12-22T02:20:15;4.30;99.90
11925;DHT22;6022;48.768;18.608;2023-12-22T02:22:43;4.30;99.90
11925;DHT22;6022;48.768;18.608;2023-12-22T02:25:10;4.40;99.90
11925;DHT22;6022;48.768;18.608;2023-12-22T02:28:07;4.30;99.90
11925;DHT22;6022;48.768;18.608;2023-12-22T02:33:24;4.20;99.90
11925;DHT22;6022;48.768;18.608;2023-12-22T02:35:59;4.30;99.90
11925;DHT22;6022;48.768;18.608;2023-12-22T02:38:31;4.20;99.90
11925;DHT22;6022;48.768;18.608;2023-12-22T02:41:00;4.20;99.90
11925;DHT22;6022;48.768;18.608;2023-12-22T02:43:28;4.00;99.90
11925;DHT22;6022;48.768;18.608;2023-12-22T02:45:56;4.20;99.90
11925;DHT22;6022;48.768;18.608;2023-12-22T02:48:23;4.00;99.90
11925;DHT22;6022;48.768;18.608;2023-12-22T02:50:50;3.90;99.90
11925;DHT22;6022;48.768;18.608;2023-12-22T02:53:17;3.90;99.90
11925;DHT22;6022;48.768;18.608;2023-12-22T02:55:45;3.80;99.90
11925;DHT22;6022;48.768;18.608;2023-12-22T02:58:12;4.00;99.90
11925;DHT22;6022;48.768;18.608;2023-12-22T03:00:39;3.90;99.90
11925;DHT22;6022;48.768;18.608;2023-12-22T03:03:07;3.90;99.90
11925;DHT22;6022;48.768;18.608;2023-12-22T03:05:34;3.80;99.90
11925;DHT22;6022;48.768;18.608;2023-12-22T03:08:01;3.90;99.90
11925;DHT22;6022;48.768;18.608;2023-12-22T03:10:29;3.90;99.90
11925;DHT22;6022;48.768;18.608;2023-12-22T03:12:57;3.90;99.90
11925;DHT22;6022;48.768;18.608;2023-12-22T03:15:24;4.10;99.90
11925;DHT22;6022;48.768;18.608;2023-12-22T03:17:52;3.80;99.90
11925;DHT22;6022;48.768;18.608;2023-12-22T03:20:20;3.90;99.90
11925;DHT22;6022;48.768;18.608;2023-12-22T03:22:47;3.80;99.90
11925;DHT22;6022;48.768;18.608;2023-12-22T03:25:14;4.00;99.90
11925;DHT22;6022;48.768;18.608;2023-12-22T03:27:41;4.00;99.90
11925;DHT22;6022;48.768;18.608;2023-12-22T03:30:09;4.30;99.90
11925;DHT22;6022;48.768;18.608;2023-12-22T03:32:37;4.00;99.90
11925;DHT22;6022;48.768;18.608;2023-12-22T03:35:04;4.10;99.90
11925;DHT22;6022;48.768;18.608;2023-12-22T03:37:32;4.20;99.90
11925;DHT22;6022;48.768;18.608;2023-12-22T03:39:59;4.30;99.90
11925;DHT22;6022;48.768;18.608;2023-12-22T03:42:26;4.00;99.90
11925;DHT22;6022;48.768;18.608;2023-12-22T03:44:54;3.90;99.90
11925;DHT22;6022;48.768;18.608;2023-12-22T03:47:21;3.90;99.90
11925;DHT22;6022;48.768;18.608;2023-12-22T03:49:49;3.90;99.90
11925;DHT22;6022;48.768;18.608;2023-12-22T03:52:16;3.80;99.90
11925;DHT22;6022;48.768;18.608;2023-12-22T03:54:45;3.80;99.90
11925;DHT22;6022;48.768;18.608;2023-12-22T03:57:12;3.80;99.90
11925;DHT22;6022;48.768;18.608;2023-12-22T03:59:39;3.70;99.90
11925;DHT22;6022;48.768;18.608;2023-12-22T04:02:06;3.70;99.90
11925;DHT22;6022;48.768;18.608;2023-12-22T04:04:39;3.70;99.90
11925;DHT22;6022;48.768;18.608;2023-12-22T04:07:06;3.70;99.90
11925;DHT22;6022;48.768;18.608;2023-12-22T04:09:33;3.70;99.90
11925;DHT22;6022;48.768;18.608;2023-12-22T04:12:01;3.60;99.90
11925;DHT22;6022;48.768;18.608;2023-12-22T04:14:28;3.70;99.90
11925;DHT22;6022;48.768;18.608;2023-12-22T04:16:55;3.70;99.90
11925;DHT22;6022;48.768;18.608;2023-12-22T04:19:24;3.60;99.90
11925;DHT22;6022;48.768;18.608;2023-12-22T04:21:51;3.70;99.90
11925;DHT22;6022;48.768;18.608;2023-12-22T04:24:19;3.80;99.90
11925;DHT22;6022;48.768;18.608;2023-12-22T04:26:46;3.90;99.90
11925;DHT22;6022;48.768;18.608;2023-12-22T04:29:14;3.90;99.90
11925;DHT22;6022;48.768;18.608;2023-12-22T04:31:42;3.70;99.90
11925;DHT22;6022;48.768;18.608;2023-12-22T04:34:09;3.80;99.90
11925;DHT22;6022;48.768;18.608;2023-12-22T04:36:37;4.10;99.90
11925;DHT22;6022;48.768;18.608;2023-12-22T04:39:04;3.70;99.90
11925;DHT22;6022;48.768;18.608;2023-12-22T04:41:31;3.60;99.90
11925;DHT22;6022;48.768;18.608;2023-12-22T04:43:58;3.80;99.90
11925;DHT22;6022;48.768;18.608;2023-12-22T04:46:30;3.80;99.90
11925;DHT22;6022;48.768;18.608;2023-12-22T04:48:57;3.60;99.90
11925;DHT22;6022;48.768;18.608;2023-12-22T04:51:25;3.90;99.90
11925;DHT22;6022;48.768;18.608;2023-12-22T04:53:52;3.70;99.90
11925;DHT22;6022;48.768;18.608;2023-12-22T04:56:19;3.80;99.90
11925;DHT22;6022;48.768;18.608;2023-12-22T04:58:47;3.70;99.90
11925;DHT22;6022;48.768;18.608;2023-12-22T05:01:15;3.70;99.90
11925;DHT22;6022;48.768;18.608;2023-12-22T05:03:42;4.10;99.90
11925;DHT22;6022;48.768;18.608;2023-12-22T05:06:09;3.80;99.90
11925;DHT22;6022;48.768;18.608;2023-12-22T05:08:37;4.10;99.90
11925;DHT22;6022;48.768;18.608;2023-12-22T05:11:04;3.80;99.90
11925;DHT22;6022;48.768;18.608;2023-12-22T05:13:32;3.90;99.90
11925;DHT22;6022;48.768;18.608;2023-12-22T05:16:00;3.90;99.90
11925;DHT22;6022;48.768;18.608;2023-12-22T05:18:27;3.80;99.90
11925;DHT22;6022;48.768;18.608;2023-12-22T05:20:54;3.70;99.90
11925;DHT22;6022;48.768;18.608;2023-12-22T05:23:22;3.90;99.90
11925;DHT22;6022;48.768;18.608;2023-12-22T05:25:49;3.80;99.90
11925;DHT22;6022;48.768;18.608;2023-12-22T05:28:16;3.70;99.90
11925;DHT22;6022;48.768;18.608;2023-12-22T05:30:44;4.20;99.90
11925;DHT22;6022;48.768;18.608;2023-12-22T05:33:12;3.90;99.90
11925;DHT22;6022;48.768;18.608;2023-12-22T05:35:39;4.20;99.90
11925;DHT22;6022;48.768;18.608;2023-12-22T05:38:07;3.90;99.90
11925;DHT22;6022;48.768;18.608;2023-12-22T05:40:34;4.20;99.90
11925;DHT22;6022;48.768;18.608;2023-12-22T05:43:01;4.00;99.90
11925;DHT22;6022;48.768;18.608;2023-12-22T05:45:29;3.70;99.90
11925;DHT22;6022;48.768;18.608;2023-12-22T05:47:56;3.90;99.90
11925;DHT22;6022;48.768;18.608;2023-12-22T05:50:26;3.90;99.90
11925;DHT22;6022;48.768;18.608;2023-12-22T05:52:53;3.90;99.90
11925;DHT22;6022;48.768;18.608;2023-12-22T05:55:21;3.90;99.90
11925;DHT22;6022;48.768;18.608;2023-12-22T05:57:48;4.20;99.90
11925;DHT22;6022;48.768;18.608;2023-12-22T06:00:16;4.00;99.90
11925;DHT22;6022;48.768;18.608;2023-12-22T06:02:44;4.20;99.90
11925;DHT22;6022;48.768;18.608;2023-12-22T06:05:11;3.90;99.90
11925;DHT22;6022;48.768;18.608;2023-12-22T06:07:38;3.90;99.90
11925;DHT22;6022;48.768;18.608;2023-12-22T06:10:07;3.90;99.90
11925;DHT22;6022;48.768;18.608;2023-12-22T06:12:36;3.90;99.90
11925;DHT22;6022;48.768;18.608;2023-12-22T06:15:04;3.90;99.90
11925;DHT22;6022;48.768;18.608;2023-12-22T06:17:31;3.80;99.90
11925;DHT22;6022;48.768;18.608;2023-12-22T06:19:59;4.10;99.90
11925;DHT22;6022;48.768;18.608;2023-12-22T06:22:26;3.80;99.90
11925;DHT22;6022;48.768;18.608;2023-12-22T06:24:54;3.80;99.90
11925;DHT22;6022;48.768;18.608;2023-12-22T06:27:21;3.80;99.90
11925;DHT22;6022;48.768;18.608;2023-12-22T06:29:48;3.90;99.90
11925;DHT22;6022;48.768;18.608;2023-12-22T06:32:15;3.80;99.90
11925;DHT22;6022;48.768;18.608;2023-12-22T06:34:44;3.70;99.90
11925;DHT22;6022;48.768;18.608;2023-12-22T06:37:11;4.10;99.90
11925;DHT22;6022;48.768;18.608;2023-12-22T06:39:38;3.90;99.90
11925;DHT22;6022;48.768;18.608;2023-12-22T06:42:08;3.60;99.90
11925;DHT22;6022;48.768;18.608;2023-12-22T06:44:38;3.80;99.90
11925;DHT22;6022;48.768;18.608;2023-12-22T06:47:10;3.70;99.90
11925;DHT22;6022;48.768;18.608;2023-12-22T06:49:38;3.70;99.90
11925;DHT22;6022;48.768;18.608;2023-12-22T06:52:05;4.00;99.90
11925;DHT22;6022;48.768;18.608;2023-12-22T06:54:33;3.70;99.90
11925;DHT22;6022;48.768;18.608;2023-12-22T06:57:01;3.80;99.90
11925;DHT22;6022;48.768;18.608;2023-12-22T06:59:28;3.70;99.90
11925;DHT22;6022;48.768;18.608;2023-12-22T07:01:58;3.40;99.90
11925;DHT22;6022;48.768;18.608;2023-12-22T07:04:41;3.60;99.90
11925;DHT22;6022;48.768;18.608;2023-12-22T07:07:09;3.60;99.90
11925;DHT22;6022;48.768;18.608;2023-12-22T07:09:36;3.70;99.90
11925;DHT22;6022;48.768;18.608;2023-12-22T07:12:05;3.40;99.90
11925;DHT22;6022;48.768;18.608;2023-12-22T07:14:34;3.70;99.90
11925;DHT22;6022;48.768;18.608;2023-12-22T07:17:02;3.70;99.90
11925;DHT22;6022;48.768;18.608;2023-12-22T07:19:30;3.70;99.90
11925;DHT22;6022;48.768;18.608;2023-12-22T07:21:58;3.70;99.90
11925;DHT22;6022;48.768;18.608;2023-12-22T07:24:26;3.80;99.90
11925;DHT22;6022;48.768;18.608;2023-12-22T07:26:54;3.60;99.90
11925;DHT22;6022;48.768;18.608;2023-12-22T07:29:22;3.70;99.90
11925;DHT22;6022;48.768;18.608;2023-12-22T07:31:50;3.90;99.90
11925;DHT22;6022;48.768;18.608;2023-12-22T07:34:21;3.80;99.90
11925;DHT22;6022;48.768;18.608;2023-12-22T07:36:50;3.70;99.90
11925;DHT22;6022;48.768;18.608;2023-12-22T07:39:32;3.70;99.90
11925;DHT22;6022;48.768;18.608;2023-12-22T07:41:59;3.70;99.90
11925;DHT22;6022;48.768;18.608;2023-12-22T07:44:27;3.60;99.90
11925;DHT22;6022;48.768;18.608;2023-12-22T07:46:58;3.80;99.90
11925;DHT22;6022;48.768;18.608;2023-12-22T07:49:29;3.70;99.90
11925;DHT22;6022;48.768;18.608;2023-12-22T07:51:59;3.90;99.90
11925;DHT22;6022;48.768;18.608;2023-12-22T07:54:32;3.60;99.90
11925;DHT22;6022;48.768;18.608;2023-12-22T07:57:00;3.70;99.90
11925;DHT22;6022;48.768;18.608;2023-12-22T07:59:28;3.70;99.90
11925;DHT22;6022;48.768;18.608;2023-12-22T08:02:00;3.80;99.90
11925;DHT22;6022;48.768;18.608;2023-12-22T08:04:31;3.90;99.90
11925;DHT22;6022;48.768;18.608;2023-12-22T08:07:00;3.90;99.90
11925;DHT22;6022;48.768;18.608;2023-12-22T08:09:29;3.60;99.90
11925;DHT22;6022;48.768;18.608;2023-12-22T08:11:57;3.70;99.90
11925;DHT22;6022;48.768;18.608;2023-12-22T08:17:32;4.10;99.90
11925;DHT22;6022;48.768;18.608;2023-12-22T08:20:03;4.10;99.90
11925;DHT22;6022;48.768;18.608;2023-12-22T08:22:50;4.10;99.90
11925;DHT22;6022;48.768;18.608;2023-12-22T08:25:24;4.40;99.90
11925;DHT22;6022;48.768;18.608;2023-12-22T08:27:53;4.10;99.90
11925;DHT22;6022;48.768;18.608;2023-12-22T08:30:27;4.20;99.90
11925;DHT22;6022;48.768;18.608;2023-12-22T08:32:58;4.20;99.90
11925;DHT22;6022;48.768;18.608;2023-12-22T08:35:35;4.30;99.90
11925;DHT22;6022;48.768;18.608;2023-12-22T08:38:25;4.30;99.90
11925;DHT22;6022;48.768;18.608;2023-12-22T08:41:03;4.00;99.90
11925;DHT22;6022;48.768;18.608;2023-12-22T08:43:38;4.30;99.90
11925;DHT22;6022;48.768;18.608;2023-12-22T08:46:08;4.40;99.90
11925;DHT22;6022;48.768;18.608;2023-12-22T08:48:41;4.30;99.90
11925;DHT22;6022;48.768;18.608;2023-12-22T08:51:14;4.50;99.90
11925;DHT22;6022;48.768;18.608;2023-12-22T08:53:46;4.30;99.90
11925;DHT22;6022;48.768;18.608;2023-12-22T08:56:13;4.40;99.90
11925;DHT22;6022;48.768;18.608;2023-12-22T08:58:44;4.40;99.90
11925;DHT22;6022;48.768;18.608;2023-12-22T09:01:15;4.10;99.90
11925;DHT22;6022;48.768;18.608;2023-12-22T09:03:44;5.00;99.90
11925;DHT22;6022;48.768;18.608;2023-12-22T09:06:24;4.40;99.90
11925;DHT22;6022;48.768;18.608;2023-12-22T09:09:00;4.10;99.90
11925;DHT22;6022;48.768;18.608;2023-12-22T09:11:28;4.30;99.90
11925;DHT22;6022;48.768;18.608;2023-12-22T09:14:01;4.60;99.90
11925;DHT22;6022;48.768;18.608;2023-12-22T09:16:28;4.20;99.90
11925;DHT22;6022;48.768;18.608;2023-12-22T09:19:00;4.10;99.90
11925;DHT22;6022;48.768;18.608;2023-12-22T09:21:28;4.10;99.90
11925;DHT22;6022;48.768;18.608;2023-12-22T09:23:56;4.00;99.90
11925;DHT22;6022;48.768;18.608;2023-12-22T09:26:27;3.90;99.90
11925;DHT22;6022;48.768;18.608;2023-12-22T09:28:56;3.80;99.90
11925;DHT22;6022;48.768;18.608;2023-12-22T09:31:24;3.80;99.90
11925;DHT22;6022;48.768;18.608;2023-12-22T09:33:52;3.80;99.90
11925;DHT22;6022;48.768;18.608;2023-12-22T09:36:23;3.70;99.90
11925;DHT22;6022;48.768;18.608;2023-12-22T09:39:00;3.30;99.90
11925;DHT22;6022;48.768;18.608;2023-12-22T09:41:27;3.80;99.90
11925;DHT22;6022;48.768;18.608;2023-12-22T09:43:57;3.50;99.90
11925;DHT22;6022;48.768;18.608;2023-12-22T09:46:27;3.70;99.90
11925;DHT22;6022;48.768;18.608;2023-12-22T09:48:58;3.50;99.90
11925;DHT22;6022;48.768;18.608;2023-12-22T09:51:32;3.20;99.90
11925;DHT22;6022;48.768;18.608;2023-12-22T09:54:12;3.60;99.90
11925;DHT22;6022;48.768;18.608;2023-12-22T09:56:42;3.70;99.90
11925;DHT22;6022;48.768;18.608;2023-12-22T09:59:14;3.60;99.90
11925;DHT22;6022;48.768;18.608;2023-12-22T10:01:49;3.60;99.90
11925;DHT22;6022;48.768;18.608;2023-12-22T10:04:18;3.70;99.90
11925;DHT22;6022;48.768;18.608;2023-12-22T10:06:58;3.70;99.90
11925;DHT22;6022;48.768;18.608;2023-12-22T10:09:28;3.80;99.90
11925;DHT22;6022;48.768;18.608;2023-12-22T10:11:58;3.80;99.90
11925;DHT22;6022;48.768;18.608;2023-12-22T10:14:29;4.00;99.90
11925;DHT22;6022;48.768;18.608;2023-12-22T10:16:58;3.90;99.90
11925;DHT22;6022;48.768;18.608;2023-12-22T10:19:26;4.00;99.90
11925;DHT22;6022;48.768;18.608;2023-12-22T10:21:54;4.10;99.90
11925;DHT22;6022;48.768;18.608;2023-12-22T10:24:43;4.10;99.90
11925;DHT22;6022;48.768;18.608;2023-12-22T10:27:15;4.20;99.90
11925;DHT22;6022;48.768;18.608;2023-12-22T10:29:51;4.30;99.90
11925;DHT22;6022;48.768;18.608;2023-12-22T10:32:22;4.30;99.90
11925;DHT22;6022;48.768;18.608;2023-12-22T10:34:53;4.50;99.90
11925;DHT22;6022;48.768;18.608;2023-12-22T10:37:21;4.50;99.90
11925;DHT22;6022;48.768;18.608;2023-12-22T10:39:56;4.20;99.90
11925;DHT22;6022;48.768;18.608;2023-12-22T10:42:30;4.00;99.90
11925;DHT22;6022;48.768;18.608;2023-12-22T10:45:04;3.80;99.90
11925;DHT22;6022;48.768;18.608;2023-12-22T10:47:33;3.90;99.90
11925;DHT22;6022;48.768;18.608;2023-12-22T10:50:05;3.80;99.90
11925;DHT22;6022;48.768;18.608;2023-12-22T10:52:36;4.00;99.90
11925;DHT22;6022;48.768;18.608;2023-12-22T10:55:07;3.70;99.90
11925;DHT22;6022;48.768;18.608;2023-12-22T10:57:46;3.80;99.90
11925;DHT22;6022;48.768;18.608;2023-12-22T11:00:19;4.00;99.90
11925;DHT22;6022;48.768;18.608;2023-12-22T11:02:48;3.70;99.90
11925;DHT22;6022;48.768;18.608;2023-12-22T11:05:27;3.70;99.90
11925;DHT22;6022;48.768;18.608;2023-12-22T11:07:59;3.80;99.90
11925;DHT22;6022;48.768;18.608;2023-12-22T11:10:31;3.70;99.90
11925;DHT22;6022;48.768;18.608;2023-12-22T11:13:00;4.10;99.90
11925;DHT22;6022;48.768;18.608;2023-12-22T11:15:28;4.20;99.90
11925;DHT22;6022;48.768;18.608;2023-12-22T11:17:57;4.30;99.90
11925;DHT22;6022;48.768;18.608;2023-12-22T11:20:27;4.30;99.90
11925;DHT22;6022;48.768;18.608;2023-12-22T11:23:00;4.30;99.90
11925;DHT22;6022;48.768;18.608;2023-12-22T11:25:30;4.40;99.90
11925;DHT22;6022;48.768;18.608;2023-12-22T11:28:00;4.50;99.90
11925;DHT22;6022;48.768;18.608;2023-12-22T11:30:30;4.40;99.90
11925;DHT22;6022;48.768;18.608;2023-12-22T11:32:59;4.70;99.90
11925;DHT22;6022;48.768;18.608;2023-12-22T11:35:29;4.50;99.90
11925;DHT22;6022;48.768;18.608;2023-12-22T11:38:01;4.50;99.90
11925;DHT22;6022;48.768;18.608;2023-12-22T11:40:30;4.40;99.90
11925;DHT22;6022;48.768;18.608;2023-12-22T11:43:00;4.50;99.90
11925;DHT22;6022;48.768;18.608;2023-12-22T11:45:30;4.50;99.90
11925;DHT22;6022;48.768;18.608;2023-12-22T11:48:11;4.50;99.90
11925;DHT22;6022;48.768;18.608;2023-12-22T11:50:38;4.50;99.90
11925;DHT22;6022;48.768;18.608;2023-12-22T11:56:02;5.00;99.90
11925;DHT22;6022;48.768;18.608;2023-12-22T11:58:40;5.10;99.90
11925;DHT22;6022;48.768;18.608;2023-12-22T12:01:20;5.20;99.90
11925;DHT22;6022;48.768;18.608;2023-12-22T12:03:50;5.10;99.90
11925;DHT22;6022;48.768;18.608;2023-12-22T12:09:04;5.20;99.90
11925;DHT22;6022;48.768;18.608;2023-12-22T12:12:08;5.00;99.90
11925;DHT22;6022;48.768;18.608;2023-12-22T12:14:41;5.10;99.90
11925;DHT22;6022;48.768;18.608;2023-12-22T12:17:15;5.10;99.90
11925;DHT22;6022;48.768;18.608;2023-12-22T12:19:47;5.00;99.90
11925;DHT22;6022;48.768;18.608;2023-12-22T12:22:16;5.20;99.90
11925;DHT22;6022;48.768;18.608;2023-12-22T12:24:44;4.80;99.90
11925;DHT22;6022;48.768;18.608;2023-12-22T12:27:20;4.70;99.90
11925;DHT22;6022;48.768;18.608;2023-12-22T12:29:47;4.60;99.90
11925;DHT22;6022;48.768;18.608;2023-12-22T12:32:15;4.60;99.90
11925;DHT22;6022;48.768;18.608;2023-12-22T12:34:52;4.30;99.90
11925;DHT22;6022;48.768;18.608;2023-12-22T12:37:24;4.40;99.90
11925;DHT22;6022;48.768;18.608;2023-12-22T12:39:58;3.90;99.90
11925;DHT22;6022;48.768;18.608;2023-12-22T12:42:31;3.90;99.90
11925;DHT22;6022;48.768;18.608;2023-12-22T12:45:00;3.90;99.90
11925;DHT22;6022;48.768;18.608;2023-12-22T12:47:35;3.90;99.90
11925;DHT22;6022;48.768;18.608;2023-12-22T12:50:24;4.20;99.90
11925;DHT22;6022;48.768;18.608;2023-12-22T12:52:52;4.20;99.90
11925;DHT22;6022;48.768;18.608;2023-12-22T12:55:29;4.20;99.90
11925;DHT22;6022;48.768;18.608;2023-12-22T12:58:00;4.20;99.90
11925;DHT22;6022;48.768;18.608;2023-12-22T13:00:32;4.10;99.90
11925;DHT22;6022;48.768;18.608;2023-12-22T13:03:04;4.10;99.90
11925;DHT22;6022;48.768;18.608;2023-12-22T13:05:34;4.00;99.90
11925;DHT22;6022;48.768;18.608;2023-12-22T13:08:12;4.00;99.90
11925;DHT22;6022;48.768;18.608;2023-12-22T13:10:42;4.00;99.90
11925;DHT22;6022;48.768;18.608;2023-12-22T13:13:13;4.20;99.90
11925;DHT22;6022;48.768;18.608;2023-12-22T13:15:40;4.00;99.90
11925;DHT22;6022;48.768;18.608;2023-12-22T13:18:09;4.10;99.90
11925;DHT22;6022;48.768;18.608;2023-12-22T13:20:36;4.10;99.90
11925;DHT22;6022;48.768;18.608;2023-12-22T13:23:05;3.80;99.90
11925;DHT22;6022;48.768;18.608;2023-12-22T13:25:41;4.10;99.90
11925;DHT22;6022;48.768;18.608;2023-12-22T13:28:08;4.10;99.90
11925;DHT22;6022;48.768;18.608;2023-12-22T13:30:37;4.00;99.90
11925;DHT22;6022;48.768;18.608;2023-12-22T13:33:09;3.80;99.90
11925;DHT22;6022;48.768;18.608;2023-12-22T13:35:38;4.00;99.90
11925;DHT22;6022;48.768;18.608;2023-12-22T13:38:09;4.10;99.90
11925;DHT22;6022;48.768;18.608;2023-12-22T13:40:45;4.10;99.90
11925;DHT22;6022;48.768;18.608;2023-12-22T13:43:15;4.10;99.90
11925;DHT22;6022;48.768;18.608;2023-12-22T13:45:42;4.10;99.90
11925;DHT22;6022;48.768;18.608;2023-12-22T13:48:10;4.00;99.90
11925;DHT22;6022;48.768;18.608;2023-12-22T13:50:38;4.00;99.90
11925;DHT22;6022;48.768;18.608;2023-12-22T13:53:08;3.90;99.90
11925;DHT22;6022;48.768;18.608;2023-12-22T13:55:36;3.90;99.90
11925;DHT22;6022;48.768;18.608;2023-12-22T13:58:07;3.80;99.90
11925;DHT22;6022;48.768;18.608;2023-12-22T14:00:40;3.90;99.90
11925;DHT22;6022;48.768;18.608;2023-12-22T14:03:13;3.70;99.90
11925;DHT22;6022;48.768;18.608;2023-12-22T14:05:43;3.90;99.90
11925;DHT22;6022;48.768;18.608;2023-12-22T14:08:11;4.10;99.90
11925;DHT22;6022;48.768;18.608;2023-12-22T14:10:45;3.90;99.90
11925;DHT22;6022;48.768;18.608;2023-12-22T14:13:15;3.70;99.90
11925;DHT22;6022;48.768;18.608;2023-12-22T14:15:43;3.80;99.90
11925;DHT22;6022;48.768;18.608;2023-12-22T14:18:11;3.90;99.90
11925;DHT22;6022;48.768;18.608;2023-12-22T14:20:44;3.70;99.90
11925;DHT22;6022;48.768;18.608;2023-12-22T14:23:13;3.70;99.90
11925;DHT22;6022;48.768;18.608;2023-12-22T14:25:44;3.70;99.90
11925;DHT22;6022;48.768;18.608;2023-12-22T14:28:14;3.80;99.90
11925;DHT22;6022;48.768;18.608;2023-12-22T14:30:41;3.70;99.90
11925;DHT22;6022;48.768;18.608;2023-12-22T14:33:09;3.70;99.90
11925;DHT22;6022;48.768;18.608;2023-12-22T14:35:40;3.20;99.90
11925;DHT22;6022;48.768;18.608;2023-12-22T14:38:08;3.70;99.90
11925;DHT22;6022;48.768;18.608;2023-12-22T14:40:36;3.00;99.90
11925;DHT22;6022;48.768;18.608;2023-12-22T14:43:04;3.20;99.90
11925;DHT22;6022;48.768;18.608;2023-12-22T14:45:32;3.20;99.90
11925;DHT22;6022;48.768;18.608;2023-12-22T14:48:00;3.40;99.90
11925;DHT22;6022;48.768;18.608;2023-12-22T14:50:30;3.10;99.90
11925;DHT22;6022;48.768;18.608;2023-12-22T14:53:01;3.00;99.90
11925;DHT22;6022;48.768;18.608;2023-12-22T14:55:32;2.90;99.90
11925;DHT22;6022;48.768;18.608;2023-12-22T14:58:14;3.00;99.90
11925;DHT22;6022;48.768;18.608;2023-12-22T15:00:43;3.00;99.90
11925;DHT22;6022;48.768;18.608;2023-12-22T15:03:11;2.60;99.90
11925;DHT22;6022;48.768;18.608;2023-12-22T15:05:40;2.90;99.90
11925;DHT22;6022;48.768;18.608;2023-12-22T15:08:09;2.80;99.90
11925;DHT22;6022;48.768;18.608;2023-12-22T15:10:41;2.90;99.90
11925;DHT22;6022;48.768;18.608;2023-12-22T15:13:15;2.70;99.90
11925;DHT22;6022;48.768;18.608;2023-12-22T15:15:46;2.90;99.90
11925;DHT22;6022;48.768;18.608;2023-12-22T15:18:16;2.80;99.90
11925;DHT22;6022;48.768;18.608;2023-12-22T15:20:46;2.60;99.90
11925;DHT22;6022;48.768;18.608;2023-12-22T15:23:17;2.90;99.90
11925;DHT22;6022;48.768;18.608;2023-12-22T15:25:48;2.80;99.90
11925;DHT22;6022;48.768;18.608;2023-12-22T15:28:19;3.20;99.90
11925;DHT22;6022;48.768;18.608;2023-12-22T15:30:49;2.80;99.90
11925;DHT22;6022;48.768;18.608;2023-12-22T15:33:17;3.00;99.90
11925;DHT22;6022;48.768;18.608;2023-12-22T15:35:47;2.90;99.90
11925;DHT22;6022;48.768;18.608;2023-12-22T15:38:18;3.00;99.90
11925;DHT22;6022;48.768;18.608;2023-12-22T15:41:05;3.00;99.90
11925;DHT22;6022;48.768;18.608;2023-12-22T15:43:32;3.00;99.90
11925;DHT22;6022;48.768;18.608;2023-12-22T15:46:09;2.90;99.90
11925;DHT22;6022;48.768;18.608;2023-12-22T15:48:37;2.90;99.90
11925;DHT22;6022;48.768;18.608;2023-12-22T15:51:12;3.10;99.90
11925;DHT22;6022;48.768;18.608;2023-12-22T15:53:41;3.30;99.90
11925;DHT22;6022;48.768;18.608;2023-12-22T15:56:10;3.20;99.90
11925;DHT22;6022;48.768;18.608;2023-12-22T15:58:39;3.30;99.90
11925;DHT22;6022;48.768;18.608;2023-12-22T16:01:07;3.20;99.90
11925;DHT22;6022;48.768;18.608;2023-12-22T16:03:38;3.30;99.90
11925;DHT22;6022;48.768;18.608;2023-12-22T16:06:15;3.20;99.90
11925;DHT22;6022;48.768;18.608;2023-12-22T16:08:48;3.40;99.90
11925;DHT22;6022;48.768;18.608;2023-12-22T16:11:19;3.30;99.90
11925;DHT22;6022;48.768;18.608;2023-12-22T16:13:47;3.20;99.90